createdAt,value
2023-04-19T00:00:43.940Z,7.40
2023-04-19T00:03:33.352Z,7.50
2023-04-19T00:06:21.782Z,7.50
2023-04-19T00:09:10.195Z,7.50
2023-04-19T00:11:59.217Z,7.40
2023-04-19T00:14:48.044Z,7.30
2023-04-19T00:17:36.954Z,7.20
2023-04-19T00:20:26.286Z,7.20
2023-04-19T00:23:15.144Z,7.30
2023-04-19T00:26:04.838Z,7.10
2023-04-19T00:28:53.773Z,7.10
2023-04-19T00:31:43.011Z,7.10
2023-04-19T00:34:31.682Z,7.10
2023-04-19T00:37:20.003Z,7.10
2023-04-19T00:40:09.285Z,7.10
2023-04-19T00:42:59.556Z,7.20
2023-04-19T00:45:50.120Z,7.10
2023-04-19T00:48:40.591Z,7.10
2023-04-19T00:51:30.042Z,7.10
2023-04-19T00:54:19.944Z,7.00
2023-04-19T00:57:11.241Z,7.00
2023-04-19T00:59:59.816Z,7.10
2023-04-19T01:02:49.402Z,7.00
2023-04-19T01:05:41.255Z,6.80
2023-04-19T01:08:30.952Z,6.70
2023-04-19T01:11:19.427Z,6.60
2023-04-19T01:14:07.874Z,6.60
2023-04-19T01:16:58.212Z,6.60
2023-04-19T01:19:48.404Z,6.60
2023-04-19T01:22:37.847Z,6.50
2023-04-19T01:25:29.153Z,6.50
2023-04-19T01:28:43.028Z,6.60
2023-04-19T01:31:32.045Z,6.60
2023-04-19T01:34:23.265Z,6.60
2023-04-19T01:37:12.124Z,6.50
2023-04-19T01:40:03.892Z,6.50
2023-04-19T01:42:53.472Z,6.50
2023-04-19T01:45:42.025Z,6.50
2023-04-19T01:48:30.502Z,6.50
2023-04-19T01:51:21.882Z,6.50
2023-04-19T01:54:10.386Z,6.40
2023-04-19T01:56:58.688Z,6.40
2023-04-19T01:59:49.266Z,6.40
2023-04-19T02:02:38.771Z,6.60
2023-04-19T02:05:28.301Z,6.50
2023-04-19T02:08:16.749Z,6.50
2023-04-19T02:11:10.460Z,6.50
2023-04-19T02:13:59.828Z,6.50
2023-04-19T02:16:50.181Z,6.50
2023-04-19T02:19:38.614Z,6.40
2023-04-19T02:22:27.502Z,6.40
2023-04-19T02:25:17.088Z,6.20
2023-04-19T02:28:08.321Z,6.20
2023-04-19T02:30:57.218Z,6.20
2023-04-19T02:33:46.966Z,6.10
2023-04-19T02:36:36.291Z,6.00
2023-04-19T02:39:25.377Z,5.80
2023-04-19T02:42:15.202Z,5.70
2023-04-19T02:45:04.237Z,5.70
2023-04-19T02:47:53.281Z,5.70
2023-04-19T02:50:42.194Z,5.70
2023-04-19T02:53:30.510Z,5.80
2023-04-19T02:56:19.464Z,5.90
2023-04-19T02:59:08.585Z,5.90
2023-04-19T03:01:57.701Z,6.00
2023-04-19T03:04:47.684Z,6.10
2023-04-19T03:07:36.730Z,6.10
2023-04-19T03:10:25.476Z,6.20
2023-04-19T03:13:14.495Z,6.30
2023-04-19T03:16:03.370Z,6.30
2023-04-19T03:18:54.394Z,6.30
2023-04-19T03:21:47.025Z,6.30
2023-04-19T03:24:37.609Z,6.30
2023-04-19T03:27:45.817Z,6.30
2023-04-19T03:30:36.748Z,6.20
2023-04-19T03:33:25.847Z,6.30
2023-04-19T03:36:16.529Z,6.30
2023-04-19T03:39:07.738Z,6.20
2023-04-19T03:41:58.745Z,6.20
2023-04-19T03:45:08.420Z,6.10
2023-04-19T03:48:03.084Z,6.10
2023-04-19T03:50:53.496Z,6.10
2023-04-19T03:53:42.558Z,5.90
2023-04-19T03:56:31.554Z,5.80
2023-04-19T03:59:20.417Z,5.80
2023-04-19T04:02:10.200Z,5.70
2023-04-19T04:04:59.284Z,5.70
2023-04-19T04:07:47.819Z,5.80
2023-04-19T04:10:36.821Z,5.80
2023-04-19T04:13:25.981Z,5.70
2023-04-19T04:16:26.247Z,5.50
2023-04-19T04:19:15.620Z,5.40
2023-04-19T04:22:06.291Z,5.40
2023-04-19T04:25:01.516Z,5.40
2023-04-19T04:27:59.418Z,5.40
2023-04-19T04:30:47.888Z,5.50
2023-04-19T04:33:37.387Z,5.60
2023-04-19T04:36:30.130Z,5.70
2023-04-19T04:39:20.080Z,5.70
2023-04-19T04:42:09.374Z,5.60
2023-04-19T04:44:58.154Z,5.60
2023-04-19T04:47:47.149Z,5.60
2023-04-19T04:50:37.223Z,5.60
2023-04-19T04:53:29.003Z,5.70
2023-04-19T04:56:18.264Z,6.00
2023-04-19T04:59:08.110Z,6.20
2023-04-19T05:02:01.087Z,6.40
2023-04-19T05:04:50.463Z,6.50
2023-04-19T05:07:39.996Z,6.70
2023-04-19T05:10:28.520Z,6.80
2023-04-19T05:13:17.327Z,6.40
2023-04-19T05:16:06.382Z,6.40
2023-04-19T05:18:56.044Z,6.50
2023-04-19T05:21:47.065Z,6.60
2023-04-19T05:24:36.981Z,7.00
2023-04-19T05:27:26.449Z,6.80
2023-04-19T05:30:16.172Z,6.90
2023-04-19T05:33:06.986Z,7.00
2023-04-19T05:35:55.401Z,7.20
2023-04-19T05:38:44.244Z,7.50
2023-04-19T05:41:33.180Z,7.60
2023-04-19T05:44:21.862Z,7.80
2023-04-19T05:47:10.838Z,8.00
2023-04-19T05:50:22.917Z,8.40
2023-04-19T05:53:31.895Z,8.50
2023-04-19T05:56:20.806Z,8.50
2023-04-19T05:59:11.723Z,8.60
2023-04-19T06:02:01.693Z,8.80
2023-04-19T06:04:50.730Z,9.10
2023-04-19T06:07:43.304Z,9.10
2023-04-19T06:10:52.667Z,9.20
2023-04-19T06:13:45.186Z,9.30
2023-04-19T06:16:34.229Z,9.20
2023-04-19T06:19:23.515Z,9.50
2023-04-19T06:22:12.577Z,9.80
2023-04-19T06:25:02.203Z,9.90
2023-04-19T06:27:52.886Z,10.00
2023-04-19T06:30:42.235Z,10.60
2023-04-19T06:33:31.449Z,10.50
2023-04-19T06:36:20.477Z,10.90
2023-04-19T06:39:10.070Z,10.80
2023-04-19T06:41:58.975Z,10.30
2023-04-19T06:44:48.186Z,10.30
2023-04-19T06:47:36.956Z,10.80
2023-04-19T06:50:25.889Z,11.30
2023-04-19T06:53:14.837Z,11.80
2023-04-19T06:56:04.850Z,11.90
2023-04-19T06:58:53.535Z,11.60
2023-04-19T07:01:42.409Z,11.80
2023-04-19T07:04:31.688Z,12.10
2023-04-19T07:07:20.344Z,12.70
2023-04-19T07:10:10.595Z,13.10
2023-04-19T07:13:00.068Z,13.50
2023-04-19T07:15:49.009Z,13.70
2023-04-19T07:18:37.708Z,13.90
2023-04-19T07:21:28.735Z,14.00
2023-04-19T07:24:18.085Z,13.90
2023-04-19T07:27:06.833Z,14.10
2023-04-19T07:29:55.646Z,13.60
2023-04-19T07:32:44.717Z,13.80
2023-04-19T07:35:34.072Z,14.10
2023-04-19T07:38:23.203Z,14.20
2023-04-19T07:41:12.085Z,14.60
2023-04-19T07:44:01.883Z,15.20
2023-04-19T07:46:51.145Z,14.90
2023-04-19T07:49:40.065Z,14.60
2023-04-19T07:52:29.082Z,13.70
2023-04-19T07:55:17.361Z,13.90
2023-04-19T07:58:06.508Z,14.00
2023-04-19T08:00:54.979Z,14.00
2023-04-19T08:03:43.593Z,14.20
2023-04-19T08:06:33.282Z,14.40
2023-04-19T08:09:22.358Z,14.90
2023-04-19T08:12:14.800Z,15.40
2023-04-19T08:15:29.587Z,15.70
2023-04-19T08:18:18.226Z,15.70
2023-04-19T08:21:07.735Z,16.20
2023-04-19T08:23:56.617Z,16.40
2023-04-19T08:26:53.515Z,16.10
2023-04-19T08:29:42.720Z,16.60
2023-04-19T08:32:31.131Z,17.10
2023-04-19T08:35:21.391Z,17.60
2023-04-19T08:38:10.437Z,18.30
2023-04-19T08:41:01.796Z,19.00
2023-04-19T08:43:52.685Z,19.30
2023-04-19T08:46:42.566Z,19.50
2023-04-19T08:49:35.397Z,18.80
2023-04-19T08:52:25.535Z,17.40
2023-04-19T08:55:15.516Z,17.50
2023-04-19T08:58:07.613Z,18.30
2023-04-19T09:01:02.858Z,18.80
2023-04-19T09:04:00.218Z,18.40
2023-04-19T09:06:52.299Z,18.80
2023-04-19T09:09:59.781Z,19.20
2023-04-19T09:13:06.831Z,18.40
2023-04-19T09:15:57.301Z,17.90
2023-04-19T09:19:08.172Z,17.90
2023-04-19T09:22:16.175Z,17.90
2023-04-19T09:28:12.978Z,19.20
2023-04-19T09:31:33.225Z,19.40
2023-04-19T09:34:25.438Z,18.80
2023-04-19T09:37:21.428Z,18.90
2023-04-19T09:40:28.249Z,19.30
2023-04-19T09:43:55.915Z,19.30
2023-04-19T09:46:38.400Z,18.60
2023-04-19T09:49:41.651Z,19.20
2023-04-19T09:52:35.152Z,18.60
2023-04-19T09:55:27.598Z,18.60
2023-04-19T09:58:22.664Z,19.30
2023-04-19T10:01:15.643Z,19.60
2023-04-19T10:04:20.217Z,19.30
2023-04-19T10:10:19.468Z,18.70
2023-04-19T10:16:18.019Z,18.50
2023-04-19T10:19:22.349Z,18.10
2023-04-19T10:22:14.463Z,18.30
2023-04-19T10:25:17.036Z,18.30
2023-04-19T10:28:06.733Z,17.90
2023-04-19T10:31:02.067Z,18.00
2023-04-19T10:33:51.888Z,18.20
2023-04-19T10:36:40.738Z,18.60
2023-04-19T10:39:42.986Z,18.70
2023-04-19T10:43:08.916Z,18.30
2023-04-19T10:46:20.731Z,18.70
2023-04-19T10:49:10.329Z,19.30
2023-04-19T10:52:00.274Z,18.70
2023-04-19T10:54:57.377Z,18.70
2023-04-19T10:58:05.720Z,18.80
2023-04-19T11:01:34.231Z,18.80
2023-04-19T11:04:32.032Z,18.30
2023-04-19T11:07:21.632Z,18.20
2023-04-19T11:10:10.777Z,18.00
2023-04-19T11:13:00.796Z,18.10
2023-04-19T11:15:49.228Z,18.10
2023-04-19T11:18:38.048Z,18.20
2023-04-19T11:21:30.388Z,18.40
2023-04-19T11:24:20.794Z,18.10
2023-04-19T11:27:09.911Z,18.30
2023-04-19T11:30:12.860Z,18.40
2023-04-19T11:33:02.390Z,17.90
2023-04-19T11:35:51.402Z,17.70
2023-04-19T11:38:40.637Z,17.70
2023-04-19T11:41:29.637Z,17.60
2023-04-19T11:44:22.008Z,18.30
2023-04-19T11:47:11.448Z,18.20
2023-04-19T11:50:36.612Z,18.10
2023-04-19T11:53:27.295Z,18.60
2023-04-19T11:56:16.924Z,19.10
2023-04-19T11:59:10.427Z,19.10
2023-04-19T12:02:25.428Z,19.40
2023-04-19T12:05:16.386Z,19.70
2023-04-19T12:08:08.554Z,19.00
2023-04-19T12:10:59.230Z,19.10
2023-04-19T12:13:48.088Z,19.20
2023-04-19T12:16:36.895Z,19.20
2023-04-19T12:19:25.287Z,19.20
2023-04-19T12:22:22.352Z,19.00
2023-04-19T12:25:10.952Z,18.90
2023-04-19T12:28:01.465Z,18.70
2023-04-19T12:30:51.175Z,18.50
2023-04-19T12:33:39.358Z,18.60
2023-04-19T12:36:28.569Z,18.60
2023-04-19T12:39:17.837Z,18.60
2023-04-19T12:42:07.335Z,18.30
2023-04-19T12:44:55.783Z,18.10
2023-04-19T12:47:45.451Z,18.10
2023-04-19T12:50:34.560Z,18.10
2023-04-19T12:53:24.428Z,18.30
2023-04-19T12:56:15.799Z,18.30
2023-04-19T12:59:04.273Z,18.40
2023-04-19T13:01:53.694Z,18.40
2023-04-19T13:04:43.502Z,18.30
2023-04-19T13:07:32.734Z,18.40
2023-04-19T13:10:21.968Z,18.60
2023-04-19T13:13:11.085Z,18.80
2023-04-19T13:15:59.516Z,18.80
2023-04-19T13:18:48.632Z,18.60
2023-04-19T13:21:37.737Z,18.40
2023-04-19T13:24:26.106Z,18.20
2023-04-19T13:27:15.401Z,17.80
2023-04-19T13:30:04.539Z,17.60
2023-04-19T13:32:56.375Z,17.40
2023-04-19T13:35:45.224Z,17.10
2023-04-19T13:38:33.587Z,17.00
2023-04-19T13:41:22.536Z,16.90
2023-04-19T13:44:12.018Z,16.90
2023-04-19T13:47:01.157Z,16.70
2023-04-19T13:49:52.443Z,16.60
2023-04-19T13:52:41.290Z,16.40
2023-04-19T13:55:30.254Z,16.10
2023-04-19T13:58:19.619Z,16.00
2023-04-19T14:01:08.586Z,15.70
2023-04-19T14:03:57.803Z,15.60
2023-04-19T14:06:46.383Z,15.30
2023-04-19T14:09:35.471Z,15.10
2023-04-19T14:12:25.228Z,15.00
2023-04-19T14:15:14.603Z,14.90
2023-04-19T14:18:03.847Z,14.70
2023-04-19T14:20:52.270Z,14.70
2023-04-19T14:23:41.267Z,14.80
2023-04-19T14:26:30.187Z,14.80
2023-04-19T14:29:19.543Z,14.80
2023-04-19T14:32:24.457Z,14.90
2023-04-19T14:35:14.972Z,15.10
2023-04-19T14:38:03.813Z,15.20
2023-04-19T14:40:53.217Z,15.30
2023-04-19T14:43:41.706Z,15.40
2023-04-19T14:46:30.773Z,15.50
2023-04-19T14:49:19.286Z,15.50
2023-04-19T14:52:08.188Z,15.30
2023-04-19T14:54:57.811Z,15.30
2023-04-19T14:57:47.223Z,15.40
2023-04-19T15:00:36.193Z,15.50
2023-04-19T15:03:26.127Z,15.60
2023-04-19T15:06:15.924Z,15.60
2023-04-19T15:09:05.417Z,15.70
2023-04-19T15:11:54.610Z,15.70
2023-04-19T15:14:43.707Z,15.40
2023-04-19T15:17:32.652Z,15.60
2023-04-19T15:20:21.974Z,15.70
2023-04-19T15:23:11.149Z,15.60
2023-04-19T15:26:00.648Z,15.60
2023-04-19T15:28:50.301Z,15.50
2023-04-19T15:31:39.344Z,15.50
2023-04-19T15:34:28.171Z,15.50
2023-04-19T15:37:17.436Z,15.70
2023-04-19T15:40:09.764Z,15.80
2023-04-19T15:42:58.204Z,15.80
2023-04-19T15:45:47.280Z,15.90
2023-04-19T15:48:36.033Z,15.80
2023-04-19T15:51:25.353Z,15.90
2023-04-19T15:54:15.117Z,16.00
2023-04-19T15:57:04.312Z,16.00
2023-04-19T15:59:52.703Z,16.00
2023-04-19T16:02:41.743Z,16.00
2023-04-19T16:05:30.796Z,15.90
2023-04-19T16:08:20.026Z,16.00
2023-04-19T16:11:08.893Z,15.90
2023-04-19T16:14:00.370Z,15.90
2023-04-19T16:16:49.235Z,15.90
2023-04-19T16:19:38.570Z,15.90
2023-04-19T16:22:27.391Z,15.70
2023-04-19T16:25:18.515Z,15.40
2023-04-19T16:28:07.618Z,15.00
2023-04-19T16:30:57.157Z,14.60
2023-04-19T16:33:46.252Z,14.40
2023-04-19T16:36:35.107Z,14.30
2023-04-19T16:39:23.920Z,14.20
2023-04-19T16:42:12.589Z,14.10
2023-04-19T16:45:01.876Z,14.10
2023-04-19T16:47:53.939Z,14.20
2023-04-19T16:50:42.508Z,14.10
2023-04-19T16:53:32.476Z,14.00
2023-04-19T16:56:22.016Z,13.90
2023-04-19T16:59:10.698Z,13.90
2023-04-19T17:02:02.584Z,13.90
2023-04-19T17:04:51.898Z,13.80
2023-04-19T17:07:40.988Z,13.70
2023-04-19T17:10:29.349Z,13.70
2023-04-19T17:13:18.167Z,13.70
2023-04-19T17:16:07.594Z,13.70
2023-04-19T17:18:56.980Z,13.60
2023-04-19T17:21:46.484Z,13.50
2023-04-19T17:24:35.318Z,13.40
2023-04-19T17:27:24.588Z,13.40
2023-04-19T17:30:14.253Z,13.40
2023-04-19T17:33:03.233Z,13.30
2023-04-19T17:35:51.738Z,13.20
2023-04-19T17:38:40.764Z,13.10
2023-04-19T17:41:29.697Z,13.10
2023-04-19T17:44:18.849Z,13.20
2023-04-19T17:47:08.100Z,13.10
2023-04-19T17:50:07.157Z,13.10
2023-04-19T17:52:56.720Z,13.10
2023-04-19T17:55:46.317Z,13.10
2023-04-19T17:58:36.578Z,13.00
2023-04-19T18:01:25.354Z,12.90
2023-04-19T18:04:18.112Z,12.90
2023-04-19T18:07:07.366Z,12.90
2023-04-19T18:09:56.159Z,12.90
2023-04-19T18:12:45.325Z,12.80
2023-04-19T18:15:34.140Z,12.70
2023-04-19T18:18:26.155Z,12.70
2023-04-19T18:21:15.563Z,12.60
2023-04-19T18:24:04.436Z,12.60
2023-04-19T18:26:53.361Z,12.50
2023-04-19T18:29:41.722Z,12.50
2023-04-19T18:32:32.222Z,12.30
2023-04-19T18:35:22.122Z,12.20
2023-04-19T18:38:11.341Z,12.20
2023-04-19T18:40:59.831Z,12.10
2023-04-19T18:44:08.155Z,12.10
2023-04-19T18:46:57.159Z,12.00
2023-04-19T18:49:58.127Z,12.00
2023-04-19T18:52:54.581Z,12.00
2023-04-19T18:55:42.855Z,12.00
2023-04-19T18:58:32.356Z,12.10
2023-04-19T19:01:21.857Z,12.20
2023-04-19T19:07:14.330Z,12.30
2023-04-19T19:10:18.232Z,12.30
2023-04-19T19:13:35.148Z,12.30
2023-04-19T19:16:25.347Z,12.20
2023-04-19T19:19:15.115Z,12.20
2023-04-19T19:22:09.455Z,12.10
2023-04-19T19:25:05.303Z,12.10
2023-04-19T19:30:49.916Z,12.00
2023-04-19T19:33:40.555Z,11.90
2023-04-19T19:36:30.195Z,11.90
2023-04-19T19:39:18.730Z,11.90
2023-04-19T19:42:08.520Z,11.90
2023-04-19T19:44:58.290Z,11.80
2023-04-19T19:47:49.578Z,11.80
2023-04-19T19:51:07.384Z,11.80
2023-04-19T19:53:48.895Z,11.80
2023-04-19T19:56:48.117Z,11.70
2023-04-19T19:59:51.577Z,11.60
2023-04-19T20:02:54.299Z,11.40
2023-04-19T20:05:45.452Z,11.40
2023-04-19T20:08:37.257Z,11.40
2023-04-19T20:11:28.800Z,11.50
2023-04-19T20:14:17.428Z,11.40
2023-04-19T20:17:07.294Z,11.50
2023-04-19T20:19:56.698Z,11.40
2023-04-19T20:22:46.065Z,11.30
2023-04-19T20:25:34.688Z,11.40
2023-04-19T20:28:23.790Z,11.40
2023-04-19T20:31:12.491Z,11.50
2023-04-19T20:34:01.366Z,11.40
2023-04-19T20:36:51.660Z,11.50
2023-04-19T20:39:40.692Z,11.40
2023-04-19T20:42:34.071Z,11.40
2023-04-19T20:45:23.707Z,11.50
2023-04-19T20:48:13.251Z,11.40
2023-04-19T20:51:02.589Z,11.40
2023-04-19T20:53:51.430Z,11.40
2023-04-19T20:56:39.779Z,11.30
2023-04-19T21:00:42.580Z,11.30
2023-04-19T21:03:31.868Z,11.20
2023-04-19T21:06:23.230Z,11.20
2023-04-19T21:09:12.240Z,11.10
2023-04-19T21:12:02.368Z,11.20
2023-04-19T21:14:52.944Z,11.20
2023-04-19T21:17:41.966Z,11.20
2023-04-19T21:20:30.838Z,11.30
2023-04-19T21:23:19.401Z,11.30
2023-04-19T21:26:09.691Z,11.20
2023-04-19T21:28:58.931Z,11.10
2023-04-19T21:31:47.949Z,11.00
2023-04-19T21:34:36.806Z,10.90
2023-04-19T21:37:26.325Z,10.90
2023-04-19T21:40:15.555Z,10.90
2023-04-19T21:43:04.841Z,10.80
2023-04-19T21:45:53.259Z,10.80
2023-04-19T21:48:42.253Z,10.80
2023-04-19T21:51:31.645Z,10.80
2023-04-19T21:54:31.017Z,10.80
2023-04-19T21:57:22.166Z,10.80
2023-04-19T22:00:11.496Z,10.80
2023-04-19T22:03:01.686Z,10.70
2023-04-19T22:05:51.033Z,10.70
2023-04-19T22:08:40.024Z,10.60
2023-04-19T22:11:30.187Z,10.60
2023-04-19T22:14:18.751Z,10.60
2023-04-19T22:17:07.539Z,10.60
2023-04-19T22:19:56.408Z,10.70
2023-04-19T22:22:45.503Z,10.60
2023-04-19T22:25:33.930Z,10.50
2023-04-19T22:28:22.891Z,10.40
2023-04-19T22:31:11.428Z,10.40
2023-04-19T22:33:59.902Z,10.40
2023-04-19T22:36:48.806Z,10.40
2023-04-19T22:39:37.068Z,10.40
2023-04-19T22:42:26.216Z,10.50
2023-04-19T22:45:14.912Z,10.40
2023-04-19T22:48:04.202Z,10.40
2023-04-19T22:50:53.688Z,10.30
2023-04-19T22:53:42.416Z,10.40
2023-04-19T22:56:31.103Z,10.40
2023-04-19T22:59:19.526Z,10.30
2023-04-19T23:02:08.414Z,10.30
2023-04-19T23:04:58.913Z,10.40
2023-04-19T23:07:49.701Z,10.40
2023-04-19T23:10:39.072Z,10.40
2023-04-19T23:13:28.648Z,10.30
2023-04-19T23:16:18.348Z,10.30
2023-04-19T23:19:07.758Z,10.30
2023-04-19T23:21:56.876Z,10.10
2023-04-19T23:24:45.360Z,9.90
2023-04-19T23:27:35.620Z,9.80
2023-04-19T23:30:24.545Z,9.80
2023-04-19T23:33:13.279Z,9.70
2023-04-19T23:36:02.113Z,9.80
2023-04-19T23:38:50.944Z,9.80
2023-04-19T23:41:39.670Z,9.80
2023-04-19T23:44:29.217Z,9.80
2023-04-19T23:47:18.170Z,9.80
2023-04-19T23:50:07.233Z,9.80
2023-04-19T23:52:56.626Z,9.80
2023-04-19T23:55:46.035Z,9.60
2023-04-19T23:58:34.715Z,9.50
